createdAt,value
2023-04-27T00:01:33.545Z,100934.22
2023-04-27T00:04:03.438Z,100933.59
2023-04-27T00:06:34.212Z,100934.22
2023-04-27T00:09:06.546Z,100933.22
2023-04-27T00:11:36.356Z,100938.94
2023-04-27T00:14:06.108Z,100948.31
2023-04-27T00:16:35.882Z,100951.53
2023-04-27T00:19:05.860Z,100949.84
2023-04-27T00:21:35.529Z,100945.03
2023-04-27T00:24:05.232Z,100951.41
2023-04-27T00:26:34.901Z,100955.63
2023-04-27T00:29:04.585Z,100954.09
2023-04-27T00:31:34.364Z,100951.00
2023-04-27T00:34:04.471Z,100964.59
2023-04-27T00:36:36.678Z,100977.66
2023-04-27T00:39:07.946Z,100978.25
2023-04-27T00:41:43.769Z,100978.41
2023-04-27T00:44:13.491Z,100974.56
2023-04-27T00:46:43.354Z,100976.28
2023-04-27T00:49:13.392Z,100979.16
2023-04-27T00:51:43.199Z,100980.16
2023-04-27T00:54:12.880Z,100980.81
2023-04-27T00:56:42.671Z,100983.69
2023-04-27T00:59:12.716Z,100980.88
2023-04-27T01:01:42.766Z,100983.91
2023-04-27T01:04:12.768Z,100989.81
2023-04-27T01:06:42.600Z,100992.84
2023-04-27T01:09:13.423Z,100991.16
2023-04-27T01:11:43.235Z,100993.00
2023-04-27T01:14:12.890Z,100995.38
2023-04-27T01:16:42.618Z,100998.88
2023-04-27T01:19:13.197Z,101001.06
2023-04-27T01:21:43.063Z,101002.94
2023-04-27T01:24:12.826Z,101004.09
2023-04-27T01:26:42.652Z,101001.75
2023-04-27T01:29:12.745Z,100997.38
2023-04-27T01:31:45.440Z,100988.63
2023-04-27T01:34:15.111Z,100992.16
2023-04-27T01:36:44.751Z,100991.84
2023-04-27T01:39:14.754Z,100986.47
2023-04-27T01:41:44.709Z,100988.47
2023-04-27T01:44:14.405Z,100994.88
2023-04-27T01:46:44.119Z,100996.91
2023-04-27T01:49:14.047Z,100996.06
2023-04-27T01:51:43.887Z,100987.31
2023-04-27T01:54:13.636Z,100998.06
2023-04-27T01:56:43.669Z,100997.94
2023-04-27T01:59:14.218Z,101001.94
2023-04-27T02:01:44.190Z,101003.09
2023-04-27T02:04:14.479Z,101011.66
2023-04-27T02:06:44.184Z,101009.16
2023-04-27T02:09:14.181Z,101013.00
2023-04-27T02:11:44.008Z,101005.09
2023-04-27T02:14:13.874Z,101008.13
2023-04-27T02:16:43.697Z,100996.00
2023-04-27T02:19:13.607Z,100982.56
2023-04-27T02:21:43.884Z,100983.44
2023-04-27T02:24:13.595Z,100980.19
2023-04-27T02:26:43.242Z,100979.69
2023-04-27T02:29:13.772Z,100975.34
2023-04-27T02:31:44.174Z,100971.94
2023-04-27T02:34:14.119Z,100969.13
2023-04-27T02:36:43.896Z,100980.91
2023-04-27T02:39:13.763Z,100975.53
2023-04-27T02:41:43.610Z,100965.94
2023-04-27T02:44:14.039Z,100967.63
2023-04-27T02:46:43.724Z,100965.78
2023-04-27T02:49:13.823Z,100955.19
2023-04-27T02:51:43.771Z,100966.94
2023-04-27T02:54:13.597Z,100954.34
2023-04-27T02:56:43.309Z,100962.41
2023-04-27T02:59:13.162Z,100951.31
2023-04-27T03:01:43.177Z,100954.84
2023-04-27T03:04:15.711Z,100945.63
2023-04-27T03:06:45.820Z,100946.31
2023-04-27T03:09:16.395Z,100948.13
2023-04-27T03:11:46.425Z,100943.44
2023-04-27T03:14:16.281Z,100935.69
2023-04-27T03:16:46.117Z,100935.38
2023-04-27T03:19:16.328Z,100916.28
2023-04-27T03:21:46.214Z,100917.97
2023-04-27T03:24:15.824Z,100916.59
2023-04-27T03:26:45.634Z,100916.63
2023-04-27T03:29:15.654Z,100919.94
2023-04-27T03:31:45.701Z,100911.47
2023-04-27T03:34:15.479Z,100911.16
2023-04-27T03:36:45.150Z,100906.09
2023-04-27T03:39:15.166Z,100907.91
2023-04-27T03:41:46.896Z,100915.13
2023-04-27T03:44:16.668Z,100912.06
2023-04-27T03:46:46.464Z,100899.16
2023-04-27T03:49:16.400Z,100897.66
2023-04-27T03:51:46.612Z,100881.72
2023-04-27T03:54:17.112Z,100881.09
2023-04-27T03:56:47.135Z,100872.00
2023-04-27T03:59:17.571Z,100878.66
2023-04-27T04:01:47.341Z,100886.72
2023-04-27T04:04:17.354Z,100879.84
2023-04-27T04:06:47.298Z,100868.41
2023-04-27T04:09:17.181Z,100865.28
2023-04-27T04:11:49.675Z,100865.59
2023-04-27T04:14:19.355Z,100866.13
2023-04-27T04:16:49.029Z,100856.00
2023-04-27T04:19:20.704Z,100863.09
2023-04-27T04:21:51.643Z,100858.88
2023-04-27T04:24:21.527Z,100860.22
2023-04-27T04:26:51.174Z,100855.84
2023-04-27T04:29:20.953Z,100855.47
2023-04-27T04:31:53.464Z,100846.56
2023-04-27T04:34:23.420Z,100837.94
2023-04-27T04:36:53.487Z,100844.00
2023-04-27T04:39:23.309Z,100848.91
2023-04-27T04:41:53.150Z,100843.84
2023-04-27T04:44:23.416Z,100837.84
2023-04-27T04:46:53.480Z,100828.53
2023-04-27T04:49:23.219Z,100823.81
2023-04-27T04:51:52.849Z,100823.44
2023-04-27T04:54:22.793Z,100818.72
2023-04-27T04:56:52.610Z,100823.00
2023-04-27T04:59:22.386Z,100828.81
2023-04-27T05:01:52.433Z,100826.03
2023-04-27T05:04:22.261Z,100823.34
2023-04-27T05:06:52.331Z,100813.25
2023-04-27T05:09:22.161Z,100809.88
2023-04-27T05:11:51.886Z,100807.88
2023-04-27T05:14:21.553Z,100806.16
2023-04-27T05:16:53.135Z,100805.25
2023-04-27T05:19:23.056Z,100803.66
2023-04-27T05:21:52.904Z,100796.06
2023-04-27T05:24:22.661Z,100790.84
2023-04-27T05:26:52.560Z,100788.16
2023-04-27T05:29:22.341Z,100791.41
2023-04-27T05:31:52.123Z,100788.22
2023-04-27T05:34:22.361Z,100778.97
2023-04-27T05:36:52.086Z,100778.16
2023-04-27T05:39:21.747Z,100775.97
2023-04-27T05:41:51.408Z,100783.00
2023-04-27T05:44:23.616Z,100771.88
2023-04-27T05:46:53.334Z,100775.88
2023-04-27T05:49:23.162Z,100771.34
2023-04-27T05:51:53.405Z,100769.63
2023-04-27T05:54:23.272Z,100765.81
2023-04-27T05:56:53.220Z,100759.06
2023-04-27T05:59:23.716Z,100761.69
2023-04-27T06:01:53.445Z,100759.53
2023-04-27T06:04:23.359Z,100755.53
2023-04-27T06:06:53.154Z,100756.09
2023-04-27T06:09:23.173Z,100758.25
2023-04-27T06:11:52.777Z,100752.69
2023-04-27T06:14:22.488Z,100756.78
2023-04-27T06:16:52.220Z,100770.88
2023-04-27T06:19:22.538Z,100766.50
2023-04-27T06:21:53.407Z,100760.56
2023-04-27T06:24:23.763Z,100768.38
2023-04-27T06:26:53.446Z,100771.25
2023-04-27T06:29:23.155Z,100761.38
2023-04-27T06:31:52.921Z,100757.28
2023-04-27T06:34:22.939Z,100757.28
2023-04-27T06:36:52.756Z,100756.78
2023-04-27T06:39:22.346Z,100755.13
2023-04-27T06:41:52.012Z,100755.59
2023-04-27T06:44:21.784Z,100756.16
2023-04-27T06:46:51.420Z,100754.47
2023-04-27T06:49:21.141Z,100760.03
2023-04-27T06:51:51.355Z,100770.34
2023-04-27T06:54:21.215Z,100781.75
2023-04-27T06:56:50.854Z,100780.44
2023-04-27T06:59:20.543Z,100776.72
2023-04-27T07:01:51.424Z,100767.34
2023-04-27T07:04:21.210Z,100761.09
2023-04-27T07:06:50.978Z,100756.75
2023-04-27T07:11:56.361Z,100754.78
2023-04-27T07:14:25.988Z,100768.25
2023-04-27T07:16:55.675Z,100760.34
2023-04-27T07:19:25.320Z,100766.38
2023-04-27T07:21:54.931Z,100752.00
2023-04-27T07:24:24.685Z,100760.69
2023-04-27T07:26:54.360Z,100763.28
2023-04-27T07:29:27.429Z,100762.25
2023-04-27T07:31:57.660Z,100756.88
2023-04-27T07:34:29.209Z,100763.09
2023-04-27T07:37:02.894Z,100763.22
2023-04-27T07:39:32.706Z,100765.19
2023-04-27T07:42:02.444Z,100760.53
2023-04-27T07:44:32.475Z,100759.63
2023-04-27T07:47:05.720Z,100768.09
2023-04-27T07:49:36.604Z,100770.88
2023-04-27T07:52:08.863Z,100770.75
2023-04-27T07:54:38.567Z,100777.94
2023-04-27T07:57:13.120Z,100780.59
2023-04-27T07:59:42.921Z,100778.75
2023-04-27T08:04:47.797Z,100769.25
2023-04-27T08:07:19.627Z,100766.00
2023-04-27T08:09:49.554Z,100764.09
2023-04-27T08:12:19.147Z,100757.75
2023-04-27T08:14:48.959Z,100770.78
2023-04-27T08:17:19.956Z,100769.47
2023-04-27T08:19:49.581Z,100771.69
2023-04-27T08:22:19.297Z,100765.81
2023-04-27T08:24:49.017Z,100768.75
2023-04-27T08:27:18.650Z,100779.44
2023-04-27T08:29:49.504Z,100780.13
2023-04-27T08:32:19.177Z,100776.28
2023-04-27T08:34:48.873Z,100772.47
2023-04-27T08:37:20.099Z,100780.00
2023-04-27T08:39:50.777Z,100782.72
2023-04-27T08:42:20.497Z,100774.44
2023-04-27T08:44:50.161Z,100765.25
2023-04-27T08:47:25.757Z,100767.78
2023-04-27T08:50:05.323Z,100770.50
2023-04-27T08:52:35.000Z,100765.31
2023-04-27T08:55:06.026Z,100773.38
2023-04-27T08:57:35.722Z,100765.66
2023-04-27T09:00:13.859Z,100759.44
2023-04-27T09:02:49.860Z,100758.25
2023-04-27T09:05:20.391Z,100755.91
2023-04-27T09:08:03.634Z,100749.19
2023-04-27T09:10:35.611Z,100743.84
2023-04-27T09:13:05.295Z,100743.00
2023-04-27T09:15:46.204Z,100738.47
2023-04-27T09:18:24.189Z,100746.34
2023-04-27T09:20:54.797Z,100742.63
2023-04-27T09:23:31.283Z,100749.50
2023-04-27T09:26:02.255Z,100747.34
2023-04-27T09:28:33.520Z,100745.50
2023-04-27T09:31:04.461Z,100753.69
2023-04-27T09:33:35.223Z,100751.88
2023-04-27T09:36:06.511Z,100755.88
2023-04-27T09:38:36.589Z,100758.03
2023-04-27T09:41:06.309Z,100760.41
2023-04-27T09:43:36.027Z,100765.06
2023-04-27T09:46:07.359Z,100760.91
2023-04-27T09:48:36.992Z,100759.84
2023-04-27T09:51:07.517Z,100762.53
2023-04-27T09:53:44.065Z,100753.84
2023-04-27T09:56:27.491Z,100762.72
2023-04-27T09:59:03.085Z,100754.66
2023-04-27T10:01:38.210Z,100762.78
2023-04-27T10:04:36.144Z,100760.88
2023-04-27T10:07:17.353Z,100770.72
2023-04-27T10:09:51.232Z,100768.56
2023-04-27T10:12:24.250Z,100772.91
2023-04-27T10:14:58.247Z,100773.09
2023-04-27T10:17:38.105Z,100767.72
2023-04-27T10:20:12.115Z,100765.22
2023-04-27T10:22:49.613Z,100752.75
2023-04-27T10:25:25.830Z,100760.09
2023-04-27T10:28:02.789Z,100759.75
2023-04-27T10:30:38.563Z,100763.63
2023-04-27T10:33:10.111Z,100762.94
2023-04-27T10:35:41.398Z,100763.97
2023-04-27T10:38:18.690Z,100771.66
2023-04-27T10:40:56.105Z,100772.91
2023-04-27T10:43:29.750Z,100780.78
2023-04-27T10:46:19.466Z,100777.72
2023-04-27T10:48:50.314Z,100773.66
2023-04-27T10:51:20.047Z,100773.81
2023-04-27T10:53:55.330Z,100783.03
2023-04-27T10:56:26.383Z,100785.69
2023-04-27T10:58:56.005Z,100794.94
2023-04-27T11:01:30.776Z,100791.53
2023-04-27T11:04:01.151Z,100786.72
2023-04-27T11:06:31.888Z,100788.03
2023-04-27T11:09:02.198Z,100791.91
2023-04-27T11:11:32.008Z,100795.88
2023-04-27T11:14:01.758Z,100798.22
2023-04-27T11:16:32.756Z,100796.41
2023-04-27T11:19:11.488Z,100803.09
2023-04-27T11:21:41.183Z,100820.16
2023-04-27T11:24:13.852Z,100815.44
2023-04-27T11:26:44.857Z,100809.41
2023-04-27T11:29:15.589Z,100821.97
2023-04-27T11:31:52.872Z,100830.00
2023-04-27T11:34:26.533Z,100826.97
2023-04-27T11:37:16.830Z,100827.97
2023-04-27T11:39:48.057Z,100823.09
2023-04-27T11:42:21.292Z,100828.47
2023-04-27T11:45:00.826Z,100834.47
2023-04-27T11:47:31.598Z,100834.72
2023-04-27T11:50:02.746Z,100830.88
2023-04-27T11:52:36.337Z,100834.06
2023-04-27T11:55:06.467Z,100843.06
2023-04-27T11:57:37.557Z,100853.66
2023-04-27T12:00:12.353Z,100856.47
2023-04-27T12:02:42.851Z,100853.28
2023-04-27T12:05:14.917Z,100856.47
2023-04-27T12:07:44.921Z,100859.59
2023-04-27T12:10:14.647Z,100862.44
2023-04-27T12:12:44.334Z,100871.19
2023-04-27T12:15:14.124Z,100865.50
2023-04-27T12:17:43.838Z,100871.19
2023-04-27T12:20:14.246Z,100863.28
2023-04-27T12:22:44.007Z,100871.47
2023-04-27T12:25:13.765Z,100871.78
2023-04-27T12:27:44.483Z,100881.03
2023-04-27T12:30:15.050Z,100874.78
2023-04-27T12:32:44.893Z,100878.97
2023-04-27T12:35:14.737Z,100887.53
2023-04-27T12:37:44.531Z,100886.38
2023-04-27T12:40:14.403Z,100879.50
2023-04-27T12:42:44.038Z,100880.88
2023-04-27T12:45:13.750Z,100874.81
2023-04-27T12:48:01.112Z,100881.88
2023-04-27T12:50:36.797Z,100882.66
2023-04-27T12:53:06.567Z,100888.31
2023-04-27T12:55:36.211Z,100887.81
2023-04-27T12:58:06.591Z,100894.19
2023-04-27T13:00:36.518Z,100891.53
2023-04-27T13:03:09.685Z,100892.69
2023-04-27T13:05:39.462Z,100896.34
2023-04-27T13:08:09.169Z,100900.84
2023-04-27T13:10:38.864Z,100898.34
2023-04-27T13:13:09.395Z,100895.38
2023-04-27T13:15:40.109Z,100890.84
2023-04-27T13:18:09.902Z,100888.41
2023-04-27T13:20:39.724Z,100885.25
2023-04-27T13:23:09.419Z,100885.78
2023-04-27T13:25:39.070Z,100886.78
2023-04-27T13:28:09.087Z,100883.41
2023-04-27T13:30:38.869Z,100883.41
2023-04-27T13:33:21.905Z,100884.41
2023-04-27T13:35:53.725Z,100887.72
2023-04-27T13:38:23.417Z,100880.22
2023-04-27T13:40:53.066Z,100879.41
2023-04-27T13:43:22.767Z,100882.38
2023-04-27T13:45:54.032Z,100879.03
2023-04-27T13:48:24.316Z,100874.88
2023-04-27T13:50:54.115Z,100874.34
2023-04-27T13:53:27.200Z,100875.34
2023-04-27T13:55:57.590Z,100861.97
2023-04-27T13:58:27.425Z,100870.13
2023-04-27T14:00:57.523Z,100865.94
2023-04-27T14:03:27.416Z,100865.00
2023-04-27T14:05:57.693Z,100861.81
2023-04-27T14:08:27.292Z,100856.97
2023-04-27T14:10:57.029Z,100853.78
2023-04-27T14:13:27.247Z,100839.53
2023-04-27T14:15:56.918Z,100839.03
2023-04-27T14:18:32.183Z,100832.50
2023-04-27T14:21:01.623Z,100840.31
2023-04-27T14:23:31.615Z,100836.72
2023-04-27T14:26:01.320Z,100836.03
2023-04-27T14:28:31.042Z,100839.41
2023-04-27T14:31:00.734Z,100834.13
2023-04-27T14:33:30.470Z,100835.81
2023-04-27T14:36:00.195Z,100824.81
2023-04-27T14:38:29.899Z,100825.66
2023-04-27T14:41:00.262Z,100828.78
2023-04-27T14:43:29.968Z,100821.22
2023-04-27T14:46:07.998Z,100814.09
2023-04-27T14:48:38.444Z,100811.66
2023-04-27T14:51:08.391Z,100805.72
2023-04-27T14:53:38.021Z,100797.91
2023-04-27T14:56:08.113Z,100792.41
2023-04-27T14:58:37.896Z,100788.41
2023-04-27T15:01:07.610Z,100795.75
2023-04-27T15:03:37.561Z,100793.25
2023-04-27T15:06:08.335Z,100798.38
2023-04-27T15:08:38.095Z,100812.28
2023-04-27T15:11:07.987Z,100806.56
2023-04-27T15:13:37.759Z,100818.31
2023-04-27T15:16:08.740Z,100809.75
2023-04-27T15:18:38.456Z,100813.72
2023-04-27T15:21:08.307Z,100817.09
2023-04-27T15:23:38.796Z,100816.63
2023-04-27T15:26:08.386Z,100815.78
2023-04-27T15:28:38.735Z,100811.97
2023-04-27T15:31:08.497Z,100820.22
2023-04-27T15:33:38.290Z,100809.69
2023-04-27T15:36:08.261Z,100814.88
2023-04-27T15:38:37.878Z,100810.22
2023-04-27T15:41:07.714Z,100808.00
2023-04-27T15:43:37.981Z,100823.50
2023-04-27T15:46:08.106Z,100827.34
2023-04-27T15:48:37.914Z,100835.50
2023-04-27T15:51:10.283Z,100838.03
2023-04-27T15:53:40.202Z,100835.81
2023-04-27T15:56:09.937Z,100830.94
2023-04-27T15:58:39.593Z,100823.06
2023-04-27T16:01:09.298Z,100820.91
2023-04-27T16:03:39.740Z,100822.91
2023-04-27T16:06:09.738Z,100821.34
2023-04-27T16:08:39.574Z,100817.09
2023-04-27T16:11:09.551Z,100822.84
2023-04-27T16:13:39.224Z,100831.25
2023-04-27T16:16:10.429Z,100832.69
2023-04-27T16:18:40.285Z,100830.94
2023-04-27T16:21:09.903Z,100835.56
2023-04-27T16:23:39.537Z,100831.31
2023-04-27T16:26:09.216Z,100834.66
2023-04-27T16:28:39.025Z,100835.66
2023-04-27T16:31:08.723Z,100834.88
2023-04-27T16:33:38.372Z,100834.28
2023-04-27T16:36:08.235Z,100842.28
2023-04-27T16:38:39.263Z,100844.00
2023-04-27T16:41:09.200Z,100842.47
2023-04-27T16:43:38.905Z,100846.81
2023-04-27T16:46:09.939Z,100845.13
2023-04-27T16:48:39.689Z,100840.91
2023-04-27T16:51:09.495Z,100834.34
2023-04-27T16:53:39.444Z,100830.84
2023-04-27T16:56:09.603Z,100826.63
2023-04-27T16:58:39.324Z,100830.31
2023-04-27T17:01:09.050Z,100816.53
2023-04-27T17:03:38.882Z,100825.72
2023-04-27T17:06:08.729Z,100817.91
2023-04-27T17:08:38.459Z,100818.91
2023-04-27T17:11:13.767Z,100818.91
2023-04-27T17:13:43.421Z,100820.38
2023-04-27T17:16:14.911Z,100824.03
2023-04-27T17:18:44.890Z,100825.66
2023-04-27T17:21:14.687Z,100823.88
2023-04-27T17:23:44.373Z,100815.69
2023-04-27T17:26:14.181Z,100818.25
2023-04-27T17:28:43.838Z,100812.88
2023-04-27T17:31:13.573Z,100820.66
2023-04-27T17:33:45.072Z,100817.97
2023-04-27T17:36:16.397Z,100810.13
2023-04-27T17:38:46.150Z,100815.31
2023-04-27T17:41:15.814Z,100804.78
2023-04-27T17:43:45.465Z,100815.25
2023-04-27T17:46:15.147Z,100811.78
2023-04-27T17:48:45.716Z,100807.06
2023-04-27T17:51:16.685Z,100810.41
2023-04-27T17:53:47.031Z,100804.22
2023-04-27T17:56:16.742Z,100800.88
2023-04-27T17:58:46.607Z,100796.91
2023-04-27T18:01:16.371Z,100790.34
2023-04-27T18:03:46.162Z,100791.03
2023-04-27T18:06:15.936Z,100791.56
2023-04-27T18:08:45.607Z,100790.19
2023-04-27T18:11:18.189Z,100782.56
2023-04-27T18:13:48.594Z,100781.00
2023-04-27T18:16:18.294Z,100779.06
2023-04-27T18:18:47.979Z,100792.47
2023-04-27T18:21:17.579Z,100788.00
2023-04-27T18:23:47.536Z,100788.69
2023-04-27T18:26:18.080Z,100793.94
2023-04-27T18:28:48.023Z,100787.75
2023-04-27T18:31:20.604Z,100783.31
2023-04-27T18:33:50.361Z,100785.44
2023-04-27T18:36:21.234Z,100792.59
2023-04-27T18:38:51.068Z,100795.00
2023-04-27T18:41:20.826Z,100798.31
2023-04-27T18:43:50.480Z,100782.41
2023-04-27T18:46:20.539Z,100793.63
2023-04-27T18:48:50.276Z,100786.53
2023-04-27T18:51:19.900Z,100786.47
2023-04-27T18:53:49.506Z,100791.25
2023-04-27T18:56:19.195Z,100780.75
2023-04-27T18:58:50.214Z,100781.19
2023-04-27T19:01:27.193Z,100798.38
2023-04-27T19:03:57.767Z,100790.47
2023-04-27T19:06:27.870Z,100794.13
2023-04-27T19:08:58.079Z,100792.19
2023-04-27T19:11:28.108Z,100785.56
2023-04-27T19:13:58.033Z,100779.53
2023-04-27T19:16:27.745Z,100770.84
2023-04-27T19:18:57.603Z,100770.28
2023-04-27T19:21:27.360Z,100761.56
2023-04-27T19:23:57.288Z,100762.13
2023-04-27T19:26:29.084Z,100765.25
2023-04-27T19:28:59.460Z,100755.94
2023-04-27T19:31:29.093Z,100762.13
2023-04-27T19:34:04.135Z,100767.38
2023-04-27T19:36:34.417Z,100752.03
2023-04-27T19:39:04.053Z,100760.00
2023-04-27T19:41:33.692Z,100754.66
2023-04-27T19:44:03.341Z,100764.84
2023-04-27T19:46:33.450Z,100771.03
2023-04-27T19:49:03.176Z,100766.69
2023-04-27T19:51:33.686Z,100777.06
2023-04-27T19:54:03.318Z,100780.59
2023-04-27T19:56:33.064Z,100778.66
2023-04-27T19:59:03.042Z,100778.06
2023-04-27T20:01:32.936Z,100782.84
2023-04-27T20:04:02.895Z,100775.84
2023-04-27T20:06:33.815Z,100779.66
2023-04-27T20:09:03.679Z,100767.16
2023-04-27T20:11:33.331Z,100765.44
2023-04-27T20:14:03.013Z,100762.94
2023-04-27T20:16:32.760Z,100754.81
2023-04-27T20:19:02.566Z,100761.13
2023-04-27T20:21:32.467Z,100758.78
2023-04-27T20:24:02.363Z,100768.31
2023-04-27T20:26:31.992Z,100771.72
2023-04-27T20:29:01.788Z,100775.75
2023-04-27T20:31:31.652Z,100766.91
2023-04-27T20:34:01.327Z,100767.88
2023-04-27T20:36:31.018Z,100782.59
2023-04-27T20:39:04.015Z,100785.72
2023-04-27T20:41:35.282Z,100773.97
2023-04-27T20:44:05.389Z,100790.94
2023-04-27T20:46:34.978Z,100789.69
2023-04-27T20:49:05.102Z,100797.44
2023-04-27T20:51:34.712Z,100799.69
2023-04-27T20:54:04.432Z,100803.19
2023-04-27T20:56:34.638Z,100813.31
2023-04-27T20:59:04.588Z,100809.25
2023-04-27T21:01:35.377Z,100817.25
2023-04-27T21:04:05.153Z,100824.72
2023-04-27T21:06:34.943Z,100831.72
2023-04-27T21:09:04.630Z,100832.00
2023-04-27T21:11:34.338Z,100832.84
2023-04-27T21:14:04.267Z,100818.97
2023-04-27T21:16:33.964Z,100826.97
2023-04-27T21:19:03.698Z,100821.06
2023-04-27T21:21:33.464Z,100817.41
2023-04-27T21:24:08.175Z,100814.34
2023-04-27T21:26:38.224Z,100819.09
2023-04-27T21:29:09.742Z,100816.84
2023-04-27T21:31:39.429Z,100819.81
2023-04-27T21:34:09.716Z,100813.50
2023-04-27T21:36:39.328Z,100806.06
2023-04-27T21:39:08.920Z,100808.41
2023-04-27T21:41:40.667Z,100792.13
2023-04-27T21:44:11.695Z,100793.97
2023-04-27T21:46:41.428Z,100794.13
2023-04-27T21:49:11.043Z,100801.97
2023-04-27T21:51:40.662Z,100801.72
2023-04-27T21:54:10.295Z,100810.81
2023-04-27T21:56:40.214Z,100806.75
2023-04-27T21:59:09.991Z,100796.81
2023-04-27T22:01:40.417Z,100799.47
2023-04-27T22:04:11.320Z,100782.47
2023-04-27T22:06:41.407Z,100784.44
2023-04-27T22:09:11.083Z,100777.13
2023-04-27T22:11:40.746Z,100774.72
2023-04-27T22:14:10.394Z,100774.56
2023-04-27T22:16:40.288Z,100785.81
2023-04-27T22:19:10.758Z,100784.97
2023-04-27T22:21:40.530Z,100789.63
2023-04-27T22:24:10.498Z,100782.03
2023-04-27T22:26:40.255Z,100784.28
2023-04-27T22:29:10.108Z,100775.97
2023-04-27T22:31:39.950Z,100778.53
2023-04-27T22:34:09.857Z,100785.81
2023-04-27T22:36:39.599Z,100786.25
2023-04-27T22:39:09.794Z,100785.22
2023-04-27T22:41:42.702Z,100793.19
2023-04-27T22:44:12.642Z,100788.22
2023-04-27T22:46:45.603Z,100775.56
2023-04-27T22:49:26.922Z,100774.94
2023-04-27T22:51:59.192Z,100760.88
2023-04-27T22:54:29.919Z,100754.97
2023-04-27T22:57:00.190Z,100747.75
2023-04-27T22:59:29.858Z,100747.88
2023-04-27T23:01:59.596Z,100736.63
2023-04-27T23:04:30.559Z,100734.56
2023-04-27T23:07:00.366Z,100720.31
2023-04-27T23:09:30.187Z,100724.06
2023-04-27T23:12:00.510Z,100719.56
2023-04-27T23:14:30.828Z,100723.53
2023-04-27T23:17:00.573Z,100725.75
2023-04-27T23:19:30.814Z,100731.16
2023-04-27T23:22:02.193Z,100718.56
2023-04-27T23:24:32.165Z,100727.94
2023-04-27T23:27:01.842Z,100718.81
2023-04-27T23:29:32.428Z,100734.75
2023-04-27T23:32:06.071Z,100730.38
2023-04-27T23:34:35.735Z,100724.81
2023-04-27T23:37:05.591Z,100724.19
2023-04-27T23:39:35.314Z,100714.69
2023-04-27T23:42:04.974Z,100719.84
2023-04-27T23:44:34.681Z,100716.25
2023-04-27T23:47:04.420Z,100709.56
2023-04-27T23:49:34.258Z,100710.63
2023-04-27T23:52:03.958Z,100707.28
2023-04-27T23:54:34.160Z,100705.09
2023-04-27T23:57:03.988Z,100695.03
2023-04-27T23:59:39.605Z,100691.81
